createdAt,value
2018-07-04T00:02:44.792Z,100783.03
2018-07-04T00:05:31.455Z,100786.61
2018-07-04T00:08:18.668Z,100785.80
2018-07-04T00:11:04.861Z,100788.98
2018-07-04T00:13:51.473Z,100785.03
2018-07-04T00:16:37.851Z,100789.97
2018-07-04T00:19:24.315Z,100788.22
2018-07-04T00:22:10.890Z,100789.14
2018-07-04T00:24:57.639Z,100788.80
2018-07-04T00:27:38.138Z,100786.70
2018-07-04T00:30:24.489Z,100785.43
2018-07-04T00:33:11.035Z,100792.09
2018-07-04T00:35:57.642Z,100786.42
2018-07-04T00:38:44.053Z,100786.96
2018-07-04T00:41:30.680Z,100792.73
2018-07-04T00:44:17.755Z,100794.05
2018-07-04T00:47:04.290Z,100795.84
2018-07-04T00:49:50.793Z,100798.48
2018-07-04T00:52:37.379Z,100793.25
2018-07-04T00:55:23.760Z,100791.98
2018-07-04T00:58:10.063Z,100789.70
2018-07-04T01:00:56.546Z,100787.44
2018-07-04T01:03:42.777Z,100788.78
2018-07-04T01:06:29.047Z,100786.52
2018-07-04T01:09:15.458Z,100790.53
2018-07-04T01:12:01.679Z,100785.29
2018-07-04T01:14:47.774Z,100782.27
2018-07-04T01:17:34.039Z,100781.09
2018-07-04T01:20:20.886Z,100779.02
2018-07-04T01:23:07.192Z,100785.67
2018-07-04T01:25:53.515Z,100778.70
2018-07-04T01:28:45.205Z,100776.45
2018-07-04T01:31:31.730Z,100774.67
2018-07-04T01:34:18.161Z,100772.12
2018-07-04T01:37:04.720Z,100772.61
2018-07-04T01:39:51.393Z,100778.84
2018-07-04T01:42:37.687Z,100777.67
2018-07-04T01:45:24.543Z,100772.08
2018-07-04T01:48:11.056Z,100772.20
2018-07-04T01:50:57.532Z,100770.95
2018-07-04T01:53:44.012Z,100769.27
2018-07-04T01:56:30.371Z,100771.93
2018-07-04T01:59:17.078Z,100768.49
2018-07-04T02:02:03.454Z,100761.04
2018-07-04T02:04:49.906Z,100759.73
2018-07-04T02:07:36.468Z,100756.27
2018-07-04T02:10:22.935Z,100757.70
2018-07-04T02:13:09.288Z,100764.31
2018-07-04T02:15:55.773Z,100763.46
2018-07-04T02:18:42.169Z,100756.92
2018-07-04T02:21:28.670Z,100764.44
2018-07-04T02:24:15.035Z,100765.33
2018-07-04T02:27:01.374Z,100764.94
2018-07-04T02:29:47.775Z,100768.89
2018-07-04T02:32:34.608Z,100769.29
2018-07-04T02:35:21.067Z,100768.89
2018-07-04T02:38:08.599Z,100770.68
2018-07-04T02:40:55.047Z,100776.00
2018-07-04T02:43:41.544Z,100771.19
2018-07-04T02:46:33.383Z,100772.09
2018-07-04T02:49:21.302Z,100768.20
2018-07-04T02:52:07.827Z,100770.89
2018-07-04T02:54:54.419Z,100771.35
2018-07-04T02:57:40.924Z,100770.92
2018-07-04T03:00:27.232Z,100767.41
2018-07-04T03:03:13.678Z,100768.69
2018-07-04T03:05:59.993Z,100767.28
2018-07-04T03:08:46.469Z,100768.14
2018-07-04T03:11:32.868Z,100770.76
2018-07-04T03:14:19.309Z,100770.70
2018-07-04T03:17:05.703Z,100770.23
2018-07-04T03:19:52.113Z,100765.83
2018-07-04T03:22:38.625Z,100763.14
2018-07-04T03:25:25.152Z,100765.78
2018-07-04T03:28:11.383Z,100763.98
2018-07-04T03:30:57.579Z,100767.48
2018-07-04T03:33:43.889Z,100766.57
2018-07-04T03:36:30.096Z,100760.38
2018-07-04T03:39:16.465Z,100756.39
2018-07-04T03:42:02.792Z,100760.23
2018-07-04T03:44:49.195Z,100755.31
2018-07-04T03:47:35.645Z,100758.68
2018-07-04T03:50:21.994Z,100751.52
2018-07-04T03:53:08.548Z,100754.81
2018-07-04T03:55:55.111Z,100748.54
2018-07-04T03:58:41.629Z,100748.27
2018-07-04T04:01:28.199Z,100738.94
2018-07-04T04:04:14.639Z,100737.39
2018-07-04T04:07:01.045Z,100732.78
2018-07-04T04:09:47.418Z,100742.50
2018-07-04T04:12:33.758Z,100746.30
2018-07-04T04:15:20.131Z,100744.47
2018-07-04T04:18:06.384Z,100752.98
2018-07-04T04:20:52.551Z,100749.05
2018-07-04T04:23:38.933Z,100752.82
2018-07-04T04:26:25.371Z,100748.87
2018-07-04T04:29:11.942Z,100748.22
2018-07-04T04:31:58.378Z,100752.95
2018-07-04T04:34:44.880Z,100744.78
2018-07-04T04:37:31.271Z,100748.27
2018-07-04T04:40:17.519Z,100748.23
2018-07-04T04:43:03.845Z,100747.97
2018-07-04T04:45:50.194Z,100742.27
2018-07-04T04:48:36.446Z,100741.84
2018-07-04T04:51:23.007Z,100746.72
2018-07-04T04:54:09.252Z,100749.09
2018-07-04T04:56:55.631Z,100750.45
2018-07-04T04:59:41.880Z,100756.92
2018-07-04T05:02:28.155Z,100754.02
2018-07-04T05:05:14.350Z,100755.18
2018-07-04T05:08:00.544Z,100758.98
2018-07-04T05:10:46.740Z,100756.19
2018-07-04T05:13:32.982Z,100755.44
2018-07-04T05:16:19.367Z,100754.39
2018-07-04T05:19:05.495Z,100752.56
2018-07-04T05:21:52.236Z,100756.32
2018-07-04T05:24:38.442Z,100754.05
2018-07-04T05:27:25.049Z,100747.33
2018-07-04T05:30:11.374Z,100750.30
2018-07-04T05:32:57.791Z,100752.70
2018-07-04T05:35:44.563Z,100753.70
2018-07-04T05:38:30.838Z,100757.44
2018-07-04T05:41:17.107Z,100757.60
2018-07-04T05:44:03.436Z,100760.33
2018-07-04T05:46:50.010Z,100762.98
2018-07-04T05:49:36.463Z,100760.71
2018-07-04T05:52:23.028Z,100760.97
2018-07-04T05:55:09.407Z,100765.52
2018-07-04T05:57:55.771Z,100764.48
2018-07-04T06:00:42.245Z,100763.63
2018-07-04T06:03:28.620Z,100762.20
2018-07-04T06:06:14.971Z,100752.72
2018-07-04T06:09:01.889Z,100755.87
2018-07-04T06:11:48.278Z,100754.56
2018-07-04T06:14:34.764Z,100762.03
2018-07-04T06:17:21.190Z,100753.06
2018-07-04T06:20:08.084Z,100761.23
2018-07-04T06:22:54.419Z,100761.23
2018-07-04T06:25:40.789Z,100768.20
2018-07-04T06:28:27.239Z,100765.41
2018-07-04T06:31:13.788Z,100763.56
2018-07-04T06:34:00.096Z,100764.27
2018-07-04T06:36:46.424Z,100759.09
2018-07-04T06:39:14.339Z,100759.56
2018-07-04T06:41:42.102Z,100762.09
2018-07-04T06:44:09.859Z,100767.23
2018-07-04T06:46:37.656Z,100766.25
2018-07-04T06:49:05.455Z,100770.78
2018-07-04T06:51:33.244Z,100762.57
2018-07-04T06:54:01.094Z,100767.37
2018-07-04T06:56:28.834Z,100763.72
2018-07-04T06:58:56.612Z,100766.53
2018-07-04T07:01:24.403Z,100757.88
2018-07-04T07:04:10.872Z,100762.02
2018-07-04T07:06:57.184Z,100758.94
2018-07-04T07:09:43.765Z,100763.70
2018-07-04T07:12:30.196Z,100760.34
2018-07-04T07:15:16.668Z,100761.28
2018-07-04T07:18:03.032Z,100767.90
2018-07-04T07:20:49.586Z,100766.77
2018-07-04T07:23:35.994Z,100770.17
2018-07-04T07:26:22.392Z,100770.00
2018-07-04T07:29:08.811Z,100775.30
2018-07-04T07:31:55.274Z,100766.81
2018-07-04T07:34:41.870Z,100766.55
2018-07-04T07:37:28.294Z,100773.27
2018-07-04T07:40:14.713Z,100771.70
2018-07-04T07:43:01.110Z,100765.98
2018-07-04T07:45:47.457Z,100770.17
2018-07-04T07:48:33.778Z,100766.39
2018-07-04T07:51:20.016Z,100764.23
2018-07-04T07:54:06.386Z,100757.66
2018-07-04T07:56:52.953Z,100750.03
2018-07-04T07:59:39.360Z,100754.06
2018-07-04T08:02:25.881Z,100748.58
2018-07-04T08:05:12.162Z,100744.06
2018-07-04T08:07:58.541Z,100743.78
2018-07-04T08:10:44.971Z,100743.52
2018-07-04T08:13:31.438Z,100739.05
2018-07-04T08:16:18.075Z,100746.19
2018-07-04T08:19:04.535Z,100730.36
2018-07-04T08:21:50.954Z,100735.27
2018-07-04T08:24:37.335Z,100735.61
2018-07-04T08:27:23.679Z,100733.67
2018-07-04T08:30:10.035Z,100736.13
2018-07-04T08:32:56.489Z,100731.59
2018-07-04T08:35:43.150Z,100726.13
2018-07-04T08:38:29.712Z,100725.88
2018-07-04T08:41:16.032Z,100728.03
2018-07-04T08:44:02.351Z,100733.42
2018-07-04T08:46:48.774Z,100731.06
2018-07-04T08:49:35.201Z,100732.12
2018-07-04T08:52:21.670Z,100731.19
2018-07-04T08:55:08.027Z,100728.34
2018-07-04T08:57:54.614Z,100724.91
2018-07-04T09:00:41.004Z,100723.23
2018-07-04T09:03:27.564Z,100718.87
2018-07-04T09:06:14.202Z,100717.14
2018-07-04T09:09:00.716Z,100714.38
2018-07-04T09:11:47.344Z,100714.38
2018-07-04T09:14:33.590Z,100719.13
2018-07-04T09:17:19.988Z,100720.59
2018-07-04T09:20:06.443Z,100711.97
2018-07-04T09:22:52.688Z,100714.80
2018-07-04T09:25:39.098Z,100717.09
2018-07-04T09:28:25.491Z,100709.31
2018-07-04T09:31:12.024Z,100703.25
2018-07-04T09:33:58.428Z,100704.64
2018-07-04T09:36:44.632Z,100715.88
2018-07-04T09:39:30.980Z,100707.51
2018-07-04T09:42:17.324Z,100712.95
2018-07-04T09:45:03.725Z,100700.48
2018-07-04T09:47:49.996Z,100699.41
2018-07-04T09:50:36.563Z,100695.04
2018-07-04T09:53:23.226Z,100693.88
2018-07-04T09:56:09.665Z,100692.52
2018-07-04T09:58:56.304Z,100692.48
2018-07-04T10:01:42.679Z,100686.16
2018-07-04T10:04:29.019Z,100690.07
2018-07-04T10:07:15.441Z,100686.02
2018-07-04T10:10:01.794Z,100689.93
2018-07-04T10:12:48.986Z,100684.55
2018-07-04T10:15:35.303Z,100677.35
2018-07-04T10:18:21.647Z,100681.58
2018-07-04T10:21:07.931Z,100680.94
2018-07-04T10:23:55.211Z,100677.99
2018-07-04T10:26:41.727Z,100670.47
2018-07-04T10:29:28.258Z,100677.85
2018-07-04T10:32:14.575Z,100669.58
2018-07-04T10:35:01.027Z,100671.95
2018-07-04T10:37:47.330Z,100662.21
2018-07-04T10:40:33.847Z,100665.38
2018-07-04T10:43:20.377Z,100660.19
2018-07-04T10:46:06.589Z,100659.30
2018-07-04T10:48:52.815Z,100656.06
2018-07-04T10:51:39.115Z,100651.95
2018-07-04T10:54:25.310Z,100646.84
2018-07-04T10:57:11.795Z,100651.13
2018-07-04T10:59:58.285Z,100650.53
2018-07-04T11:02:44.584Z,100653.64
2018-07-04T11:05:31.177Z,100651.07
2018-07-04T11:08:17.379Z,100644.28
2018-07-04T11:11:03.898Z,100636.00
2018-07-04T11:13:50.633Z,100635.05
2018-07-04T11:16:37.212Z,100637.53
2018-07-04T11:19:23.535Z,100638.69
2018-07-04T11:22:09.878Z,100631.53
2018-07-04T11:24:56.390Z,100619.85
2018-07-04T11:27:42.779Z,100628.08
2018-07-04T11:30:29.057Z,100627.07
2018-07-04T11:33:15.580Z,100625.94
2018-07-04T11:36:02.082Z,100623.74
2018-07-04T11:38:48.654Z,100625.65
2018-07-04T11:41:35.072Z,100615.52
2018-07-04T11:44:21.385Z,100619.33
2018-07-04T11:46:49.112Z,100623.18
2018-07-04T11:49:16.857Z,100619.27
2018-07-04T11:51:44.647Z,100616.12
2018-07-04T11:54:12.421Z,100613.37
2018-07-04T11:56:41.894Z,100621.55
2018-07-04T11:59:09.678Z,100615.11
2018-07-04T12:01:37.441Z,100613.61
2018-07-04T12:04:23.879Z,100615.52
2018-07-04T12:07:07.818Z,100620.55
2018-07-04T12:09:36.811Z,100617.31
2018-07-04T12:12:04.579Z,100613.30
2018-07-04T12:14:32.614Z,100610.33
2018-07-04T12:17:00.723Z,100607.28
2018-07-04T12:19:28.487Z,100606.84
2018-07-04T12:21:56.266Z,100603.75
2018-07-04T12:24:24.086Z,100608.88
2018-07-04T12:26:51.905Z,100603.43
2018-07-04T12:29:19.646Z,100603.48
2018-07-04T12:31:47.407Z,100603.53
2018-07-04T12:34:15.163Z,100608.28
2018-07-04T12:36:42.915Z,100604.10
2018-07-04T12:39:10.693Z,100599.69
2018-07-04T12:41:38.466Z,100597.20
2018-07-04T12:44:06.230Z,100593.75
2018-07-04T12:46:34.067Z,100590.58
2018-07-04T12:49:02.960Z,100577.70
2018-07-04T12:51:32.275Z,100585.86
2018-07-04T12:54:05.513Z,100579.17
2018-07-04T12:56:51.894Z,100568.27
2018-07-04T12:59:38.325Z,100578.77
2018-07-04T13:02:24.896Z,100570.30
2018-07-04T13:05:11.300Z,100574.72
2018-07-04T13:07:57.803Z,100573.27
2018-07-04T13:10:44.111Z,100564.57
2018-07-04T13:13:30.456Z,100562.73
2018-07-04T13:16:16.903Z,100556.38
2018-07-04T13:19:03.297Z,100554.66
2018-07-04T13:21:49.562Z,100552.23
2018-07-04T13:24:35.931Z,100537.09
2018-07-04T13:27:22.707Z,100544.80
2018-07-04T13:30:09.163Z,100543.56
2018-07-04T13:32:55.583Z,100540.01
2018-07-04T13:35:41.992Z,100542.11
2018-07-04T13:38:28.340Z,100541.54
2018-07-04T13:41:14.716Z,100546.98
2018-07-04T13:44:01.541Z,100537.23
2018-07-04T13:46:48.068Z,100537.02
2018-07-04T13:49:34.332Z,100536.17
2018-07-04T13:52:20.679Z,100528.72
2018-07-04T13:55:07.062Z,100528.70
2018-07-04T13:57:53.530Z,100523.54
2018-07-04T14:00:39.729Z,100513.61
2018-07-04T14:03:26.149Z,100520.86
2018-07-04T14:06:12.449Z,100511.09
2018-07-04T14:08:58.697Z,100506.99
2018-07-04T14:11:45.127Z,100514.00
2018-07-04T14:14:31.411Z,100504.94
2018-07-04T14:17:17.832Z,100511.94
2018-07-04T14:20:04.071Z,100509.14
2018-07-04T14:22:50.310Z,100507.83
2018-07-04T14:25:36.698Z,100503.53
2018-07-04T14:28:23.171Z,100499.75
2018-07-04T14:31:09.503Z,100492.41
2018-07-04T14:33:55.880Z,100495.97
2018-07-04T14:36:42.178Z,100494.62
2018-07-04T14:39:28.674Z,100493.27
2018-07-04T14:42:15.617Z,100490.95
2018-07-04T14:45:02.068Z,100485.33
2018-07-04T14:47:48.343Z,100484.09
2018-07-04T14:50:34.630Z,100482.04
2018-07-04T14:53:21.042Z,100476.91
2018-07-04T14:56:07.474Z,100468.33
2018-07-04T14:58:53.776Z,100466.98
2018-07-04T15:01:40.165Z,100465.52
2018-07-04T15:04:26.748Z,100465.14
2018-07-04T15:07:12.985Z,100469.19
2018-07-04T15:09:59.729Z,100459.89
2018-07-04T15:12:46.019Z,100454.38
2018-07-04T15:15:32.282Z,100450.11
2018-07-04T15:18:18.654Z,100446.92
2018-07-04T15:21:04.968Z,100453.21
2018-07-04T15:23:51.405Z,100450.02
2018-07-04T15:26:37.952Z,100452.23
2018-07-04T15:29:25.032Z,100449.05
2018-07-04T15:32:11.260Z,100447.21
2018-07-04T15:34:57.810Z,100448.08
2018-07-04T15:37:44.219Z,100439.00
2018-07-04T15:40:30.756Z,100443.91
2018-07-04T15:43:17.206Z,100439.98
2018-07-04T15:46:03.490Z,100434.78
2018-07-04T15:48:49.903Z,100442.02
2018-07-04T15:51:36.337Z,100436.84
2018-07-04T15:54:22.699Z,100438.31
2018-07-04T15:57:09.154Z,100442.84
2018-07-04T15:59:55.380Z,100432.32
2018-07-04T16:02:41.781Z,100435.51
2018-07-04T16:05:28.147Z,100433.52
2018-07-04T16:08:14.515Z,100438.92
2018-07-04T16:11:01.209Z,100430.11
2018-07-04T16:13:47.697Z,100429.97
2018-07-04T16:16:34.163Z,100426.66
2018-07-04T16:19:20.522Z,100427.30
2018-07-04T16:22:06.797Z,100421.16
2018-07-04T16:24:53.211Z,100421.76
2018-07-04T16:27:39.636Z,100427.53
2018-07-04T16:30:25.970Z,100422.48
2018-07-04T16:33:12.348Z,100427.50
2018-07-04T16:35:58.762Z,100422.83
2018-07-04T16:38:45.206Z,100416.69
2018-07-04T16:41:31.635Z,100418.78
2018-07-04T16:44:18.123Z,100420.96
2018-07-04T16:47:04.530Z,100409.92
2018-07-04T16:49:50.901Z,100403.89
2018-07-04T16:52:37.311Z,100407.59
2018-07-04T16:55:23.598Z,100413.48
2018-07-04T16:58:10.092Z,100404.88
2018-07-04T17:00:56.553Z,100406.55
2018-07-04T17:03:42.909Z,100403.37
2018-07-04T17:06:29.065Z,100395.48
2018-07-04T17:09:15.492Z,100398.03
2018-07-04T17:12:02.406Z,100393.83
2018-07-04T17:14:48.770Z,100396.41
2018-07-04T17:17:35.040Z,100390.61
2018-07-04T17:20:21.380Z,100389.97
2018-07-04T17:23:07.693Z,100395.35
2018-07-04T17:25:54.214Z,100387.23
2018-07-04T17:28:40.622Z,100384.87
2018-07-04T17:31:27.103Z,100386.58
2018-07-04T17:34:13.582Z,100388.25
2018-07-04T17:36:59.843Z,100390.30
2018-07-04T17:39:46.317Z,100384.91
2018-07-04T17:42:32.543Z,100389.83
2018-07-04T17:45:18.879Z,100387.58
2018-07-04T17:48:05.309Z,100386.31
2018-07-04T17:50:51.787Z,100378.30
2018-07-04T17:53:38.269Z,100378.77
2018-07-04T17:56:24.892Z,100381.02
2018-07-04T17:59:11.234Z,100373.03
2018-07-04T18:01:57.564Z,100382.87
2018-07-04T18:04:43.859Z,100376.19
2018-07-04T18:07:30.130Z,100375.00
2018-07-04T18:10:16.479Z,100372.38
2018-07-04T18:13:02.709Z,100383.17
2018-07-04T18:15:49.084Z,100377.11
2018-07-04T18:18:35.589Z,100380.31
2018-07-04T18:21:23.907Z,100381.45
2018-07-04T18:24:10.324Z,100375.72
2018-07-04T18:26:56.710Z,100377.95
2018-07-04T18:29:43.038Z,100371.84
2018-07-04T18:32:29.570Z,100370.94
2018-07-04T18:35:15.810Z,100373.64
2018-07-04T18:38:02.185Z,100375.61
2018-07-04T18:40:48.394Z,100379.50
2018-07-04T18:43:34.939Z,100377.51
2018-07-04T18:46:21.505Z,100376.17
2018-07-04T18:49:07.919Z,100376.98
2018-07-04T18:51:54.126Z,100374.50
2018-07-04T18:54:40.451Z,100378.27
2018-07-04T18:57:26.904Z,100380.31
2018-07-04T19:00:13.250Z,100377.45
2018-07-04T19:02:59.629Z,100383.44
2018-07-04T19:05:46.122Z,100377.89
2018-07-04T19:08:32.482Z,100380.96
2018-07-04T19:11:18.810Z,100381.63
2018-07-04T19:14:05.095Z,100392.98
2018-07-04T19:16:51.774Z,100385.19
2018-07-04T19:19:38.234Z,100382.95
2018-07-04T19:22:24.678Z,100389.70
2018-07-04T19:25:11.120Z,100387.92
2018-07-04T19:31:14.530Z,100394.62
2018-07-04T19:34:00.974Z,100393.21
2018-07-04T19:36:47.482Z,100399.73
2018-07-04T19:39:33.797Z,100402.06
2018-07-04T19:42:20.297Z,100399.80
2018-07-04T19:45:06.574Z,100408.73
2018-07-04T19:47:52.966Z,100413.27
2018-07-04T19:50:39.289Z,100409.20
2018-07-04T19:53:25.503Z,100410.45
2018-07-04T19:56:11.860Z,100412.66
2018-07-04T19:58:58.261Z,100412.79
2018-07-04T20:01:44.777Z,100415.23
2018-07-04T20:04:31.078Z,100417.86
2018-07-04T20:07:17.304Z,100416.61
2018-07-04T20:10:03.673Z,100421.12
2018-07-04T20:12:49.962Z,100422.56
2018-07-04T20:15:36.519Z,100421.88
2018-07-04T20:18:22.875Z,100418.41
2018-07-04T20:21:09.259Z,100415.25
2018-07-04T20:23:55.691Z,100420.17
2018-07-04T20:26:41.923Z,100420.33
2018-07-04T20:29:28.276Z,100423.87
2018-07-04T20:32:14.583Z,100425.03
2018-07-04T20:35:01.028Z,100423.91
2018-07-04T20:37:47.587Z,100426.91
2018-07-04T20:40:33.817Z,100423.34
2018-07-04T20:43:20.299Z,100419.40
2018-07-04T20:46:06.702Z,100422.95
2018-07-04T20:48:53.123Z,100417.97
2018-07-04T20:51:39.412Z,100421.42
2018-07-04T20:54:25.744Z,100417.38
2018-07-04T20:57:13.018Z,100427.15
2018-07-04T20:59:59.706Z,100416.36
2018-07-04T21:02:45.973Z,100422.46
2018-07-04T21:05:32.167Z,100426.40
2018-07-04T21:08:18.489Z,100429.77
2018-07-04T21:11:04.798Z,100423.80
2018-07-04T21:13:51.199Z,100429.89
2018-07-04T21:16:37.602Z,100427.09
2018-07-04T21:19:23.942Z,100435.78
2018-07-04T21:22:10.204Z,100435.04
2018-07-04T21:24:56.620Z,100427.70
2018-07-04T21:27:43.001Z,100434.95
2018-07-04T21:30:29.209Z,100439.24
2018-07-04T21:33:15.514Z,100445.29
2018-07-04T21:36:01.918Z,100444.30
2018-07-04T21:38:48.261Z,100438.08
2018-07-04T21:41:34.523Z,100435.77
2018-07-04T21:44:20.890Z,100443.90
2018-07-04T21:47:07.597Z,100449.34
2018-07-04T21:49:54.019Z,100448.62
2018-07-04T21:52:40.804Z,100453.61
2018-07-04T21:55:27.310Z,100449.86
2018-07-04T21:58:13.658Z,100442.09
2018-07-04T22:00:59.907Z,100445.85
2018-07-04T22:03:46.351Z,100447.02
2018-07-04T22:06:32.672Z,100441.16
2018-07-04T22:09:19.085Z,100443.27
2018-07-04T22:12:05.531Z,100436.85
2018-07-04T22:14:51.887Z,100445.06
2018-07-04T22:17:38.086Z,100435.67
2018-07-04T22:20:24.513Z,100438.91
2018-07-04T22:23:10.921Z,100431.92
2018-07-04T22:25:57.803Z,100431.31
2018-07-04T22:28:44.098Z,100433.16
2018-07-04T22:31:30.476Z,100429.70
2018-07-04T22:34:16.860Z,100427.15
2018-07-04T22:37:03.240Z,100433.39
2018-07-04T22:39:49.642Z,100427.34
2018-07-04T22:42:36.149Z,100428.38
2018-07-04T22:45:22.340Z,100429.47
2018-07-04T22:48:08.605Z,100429.72
2018-07-04T22:50:54.829Z,100424.98
2018-07-04T22:53:41.072Z,100423.75
2018-07-04T22:56:27.562Z,100423.30
2018-07-04T22:59:14.079Z,100423.75
2018-07-04T23:02:00.325Z,100426.92
2018-07-04T23:04:46.526Z,100417.36
2018-07-04T23:08:35.812Z,100414.35
2018-07-04T23:11:22.302Z,100414.56
2018-07-04T23:14:08.614Z,100414.62
2018-07-04T23:16:55.112Z,100415.59
2018-07-04T23:19:41.326Z,100420.58
2018-07-04T23:22:27.667Z,100415.33
2018-07-04T23:25:14.016Z,100412.67
2018-07-04T23:28:00.695Z,100408.23
2018-07-04T23:30:46.863Z,100407.05
2018-07-04T23:33:33.101Z,100403.16
2018-07-04T23:36:19.758Z,100397.95
2018-07-04T23:39:06.303Z,100404.70
2018-07-04T23:41:52.464Z,100407.14
2018-07-04T23:44:38.939Z,100397.30
2018-07-04T23:47:25.753Z,100399.80
2018-07-04T23:50:12.037Z,100395.97
2018-07-04T23:52:58.339Z,100398.98
2018-07-04T23:55:44.774Z,100399.85
2018-07-04T23:58:31.315Z,100401.80
